createdAt,value
2023-05-07T00:01:06.886Z,102840.16
2023-05-07T00:03:34.955Z,102821.06
2023-05-07T00:06:03.105Z,102838.06
2023-05-07T00:08:31.150Z,102846.47
2023-05-07T00:10:59.012Z,102844.66
2023-05-07T00:13:27.091Z,102842.69
2023-05-07T00:15:55.091Z,102839.81
2023-05-07T00:18:24.395Z,102829.53
2023-05-07T00:20:52.299Z,102840.03
2023-05-07T00:23:20.238Z,102845.84
2023-05-07T00:25:48.108Z,102826.13
2023-05-07T00:28:16.152Z,102833.00
2023-05-07T00:30:44.043Z,102841.94
2023-05-07T00:33:11.983Z,102838.44
2023-05-07T00:35:41.548Z,102839.06
2023-05-07T00:38:09.489Z,102843.06
2023-05-07T00:40:37.332Z,102846.41
2023-05-07T00:43:05.209Z,102847.19
2023-05-07T00:45:33.187Z,102837.47
2023-05-07T00:48:02.589Z,102835.63
2023-05-07T00:50:31.405Z,102830.81
2023-05-07T00:53:01.101Z,102830.81
2023-05-07T00:55:29.140Z,102839.91
2023-05-07T00:57:57.223Z,102835.22
2023-05-07T01:00:26.265Z,102824.91
2023-05-07T01:02:54.301Z,102845.28
2023-05-07T01:05:25.431Z,102837.66
2023-05-07T01:07:56.194Z,102844.53
2023-05-07T01:10:26.552Z,102761.13
2023-05-07T01:12:55.926Z,102848.50
2023-05-07T01:15:23.949Z,102839.81
2023-05-07T01:17:51.825Z,102841.50
2023-05-07T01:20:20.811Z,102838.00
2023-05-07T01:22:51.273Z,102837.38
2023-05-07T01:25:19.656Z,102828.13
2023-05-07T01:27:47.695Z,102847.31
2023-05-07T01:30:15.975Z,102850.66
2023-05-07T01:32:47.550Z,102858.16
2023-05-07T01:35:20.707Z,102856.94
2023-05-07T01:37:51.290Z,102696.63
2023-05-07T01:40:19.641Z,102855.59
2023-05-07T01:42:49.362Z,102856.38
2023-05-07T01:45:17.238Z,102823.59
2023-05-07T01:47:46.014Z,102832.28
2023-05-07T01:50:14.956Z,102857.16
2023-05-07T01:52:43.081Z,102857.91
2023-05-07T01:55:12.689Z,102859.31
2023-05-07T01:57:41.030Z,102853.25
2023-05-07T02:00:10.280Z,102860.41
2023-05-07T02:02:39.321Z,102856.63
2023-05-07T02:05:08.178Z,102856.13
2023-05-07T02:07:36.288Z,102794.38
2023-05-07T02:10:05.063Z,102858.25
2023-05-07T02:12:34.399Z,102858.38
2023-05-07T02:15:02.661Z,102850.19
2023-05-07T02:17:32.878Z,102862.66
2023-05-07T02:20:00.985Z,102864.47
2023-05-07T02:22:28.862Z,102850.19
2023-05-07T02:24:56.886Z,102861.13
2023-05-07T02:27:24.871Z,102865.38
2023-05-07T02:29:54.091Z,102861.88
2023-05-07T02:32:22.145Z,102860.06
2023-05-07T02:34:53.381Z,102883.50
2023-05-07T02:37:21.193Z,102868.75
2023-05-07T02:39:49.132Z,102857.47
2023-05-07T02:42:17.036Z,102867.69
2023-05-07T02:44:44.874Z,102856.00
2023-05-07T02:47:16.368Z,102868.59
2023-05-07T02:49:44.234Z,102870.28
2023-05-07T02:52:12.044Z,102880.63
2023-05-07T02:54:39.915Z,102862.22
2023-05-07T02:57:07.798Z,102872.09
2023-05-07T02:59:35.671Z,102862.06
2023-05-07T03:02:03.578Z,102872.09
2023-05-07T03:04:32.918Z,102871.19
2023-05-07T03:07:00.758Z,102871.81
2023-05-07T03:09:28.716Z,102870.91
2023-05-07T03:11:56.786Z,102878.66
2023-05-07T03:14:24.710Z,102869.84
2023-05-07T03:16:52.669Z,102868.31
2023-05-07T03:19:20.586Z,102843.88
2023-05-07T03:21:49.895Z,102867.53
2023-05-07T03:24:17.905Z,102866.00
2023-05-07T03:26:45.917Z,102865.25
2023-05-07T03:29:13.761Z,102876.94
2023-05-07T03:31:41.718Z,102871.00
2023-05-07T03:34:09.681Z,102874.16
2023-05-07T03:36:37.549Z,102878.72
2023-05-07T03:39:06.874Z,102877.19
2023-05-07T03:41:35.076Z,102880.81
2023-05-07T03:44:02.903Z,102878.38
2023-05-07T03:46:30.915Z,102880.47
2023-05-07T03:48:58.817Z,102882.59
2023-05-07T03:51:26.793Z,102874.97
2023-05-07T03:53:54.793Z,102889.53
2023-05-07T03:56:24.207Z,102892.56
2023-05-07T03:58:52.068Z,102892.06
2023-05-07T04:01:20.021Z,102894.00
2023-05-07T04:03:48.430Z,102900.38
2023-05-07T04:06:18.228Z,102891.34
2023-05-07T04:08:46.169Z,102889.94
2023-05-07T04:11:14.114Z,102875.53
2023-05-07T04:13:43.399Z,102894.91
2023-05-07T04:16:11.362Z,102898.06
2023-05-07T04:18:39.514Z,102893.44
2023-05-07T04:21:07.690Z,102895.84
2023-05-07T04:23:35.588Z,102899.75
2023-05-07T04:26:04.290Z,102892.66
2023-05-07T04:28:32.162Z,102898.41
2023-05-07T04:31:01.416Z,102888.31
2023-05-07T04:33:29.360Z,102875.22
2023-05-07T04:35:57.541Z,102893.97
2023-05-07T04:38:25.604Z,102894.50
2023-05-07T04:40:53.516Z,102858.13
2023-05-07T04:43:21.795Z,102905.97
2023-05-07T04:45:50.385Z,102910.94
2023-05-07T04:48:20.422Z,102910.72
2023-05-07T04:50:50.299Z,102907.13
2023-05-07T04:53:18.746Z,102911.16
2023-05-07T04:55:47.177Z,102880.25
2023-05-07T04:58:15.481Z,102911.72
2023-05-07T05:00:43.481Z,102893.16
2023-05-07T05:03:12.338Z,102923.72
2023-05-07T05:05:41.728Z,102908.66
2023-05-07T05:08:10.897Z,102917.78
2023-05-07T05:10:38.827Z,102915.19
2023-05-07T05:13:07.157Z,102916.75
2023-05-07T05:15:38.294Z,102917.78
2023-05-07T05:18:06.425Z,102925.06
2023-05-07T05:20:34.632Z,102897.25
2023-05-07T05:23:03.837Z,102918.81
2023-05-07T05:25:31.752Z,102922.97
2023-05-07T05:28:00.100Z,102923.25
2023-05-07T05:30:27.965Z,102925.44
2023-05-07T05:32:56.066Z,102917.00
2023-05-07T05:35:23.984Z,102905.28
2023-05-07T05:37:51.892Z,102914.13
2023-05-07T05:40:23.011Z,102920.63
2023-05-07T05:42:51.159Z,102920.63
2023-05-07T05:45:18.987Z,102922.16
2023-05-07T05:47:48.300Z,102923.56
2023-05-07T05:50:16.302Z,102900.03
2023-05-07T05:52:44.217Z,102926.25
2023-05-07T05:55:12.326Z,102910.91
2023-05-07T05:57:41.720Z,102917.63
2023-05-07T06:00:12.158Z,102923.22
2023-05-07T06:02:40.408Z,102921.53
2023-05-07T06:05:09.291Z,102920.75
2023-05-07T06:07:37.177Z,102905.53
2023-05-07T06:10:05.623Z,102920.44
2023-05-07T06:12:33.836Z,102920.03
2023-05-07T06:15:03.530Z,102920.41
2023-05-07T06:17:31.760Z,102916.25
2023-05-07T06:19:59.804Z,102922.06
2023-05-07T06:22:27.617Z,102926.97
2023-05-07T06:24:55.545Z,102921.09
2023-05-07T06:27:23.547Z,102927.75
2023-05-07T06:29:51.359Z,102928.41
2023-05-07T06:32:22.110Z,102930.75
2023-05-07T06:34:50.228Z,102927.88
2023-05-07T06:37:18.060Z,102935.28
2023-05-07T06:39:45.927Z,102935.94
2023-05-07T06:42:13.872Z,102921.22
2023-05-07T06:44:41.764Z,102933.03
2023-05-07T06:47:09.648Z,102929.88
2023-05-07T06:49:39.242Z,102931.16
2023-05-07T06:52:07.103Z,102917.22
2023-05-07T06:54:35.057Z,102923.63
2023-05-07T06:57:03.004Z,102928.91
2023-05-07T06:59:30.824Z,102905.88
2023-05-07T07:01:58.855Z,102931.13
2023-05-07T07:04:27.178Z,102923.91
2023-05-07T07:06:57.742Z,102926.53
2023-05-07T07:09:25.645Z,102828.19
2023-05-07T07:11:53.635Z,102914.69
2023-05-07T07:14:21.609Z,102927.75
2023-05-07T07:16:49.752Z,102925.69
2023-05-07T07:19:17.819Z,102922.09
2023-05-07T07:21:46.147Z,102912.06
2023-05-07T07:24:20.190Z,102915.94
2023-05-07T07:26:48.390Z,102913.94
2023-05-07T07:29:16.303Z,102894.81
2023-05-07T07:31:44.301Z,102907.88
2023-05-07T07:34:12.275Z,102904.25
2023-05-07T07:36:46.318Z,102904.63
2023-05-07T07:39:16.802Z,102896.97
2023-05-07T07:41:44.655Z,102900.06
2023-05-07T07:44:16.045Z,102894.31
2023-05-07T07:46:44.656Z,102878.88
2023-05-07T07:49:12.549Z,102904.13
2023-05-07T07:51:40.435Z,102890.22
2023-05-07T07:54:08.609Z,102878.47
2023-05-07T07:56:37.842Z,102876.56
2023-05-07T07:59:08.153Z,102885.41
2023-05-07T08:01:36.551Z,102877.91
2023-05-07T08:04:06.664Z,102868.81
2023-05-07T08:06:34.775Z,102848.94
2023-05-07T08:09:03.497Z,102874.50
2023-05-07T08:11:31.354Z,102874.22
2023-05-07T08:14:01.282Z,102844.22
2023-05-07T08:18:58.896Z,102872.38
2023-05-07T08:21:27.280Z,102875.84
2023-05-07T08:23:55.262Z,102876.06
2023-05-07T08:26:23.072Z,102880.09
2023-05-07T08:28:51.011Z,102861.78
2023-05-07T08:31:20.653Z,102864.94
2023-05-07T08:33:52.374Z,102857.41
2023-05-07T08:36:20.952Z,102829.38
2023-05-07T08:38:52.839Z,102861.91
2023-05-07T08:41:28.279Z,102865.28
2023-05-07T08:44:00.494Z,102862.63
2023-05-07T08:46:33.971Z,102837.00
2023-05-07T08:49:04.905Z,102849.16
2023-05-07T08:51:33.154Z,102848.88
2023-05-07T08:54:03.469Z,102852.47
2023-05-07T08:56:31.728Z,102852.44
2023-05-07T08:58:59.934Z,102851.22
2023-05-07T09:01:29.430Z,102842.72
2023-05-07T09:03:57.542Z,102847.84
2023-05-07T09:06:25.849Z,102848.88
2023-05-07T09:08:55.059Z,102833.06
2023-05-07T09:11:24.751Z,102842.13
2023-05-07T09:13:56.543Z,102827.00
2023-05-07T09:16:24.558Z,102835.06
2023-05-07T09:18:56.179Z,102833.78
2023-05-07T09:21:24.817Z,102826.16
2023-05-07T09:23:53.392Z,102835.38
2023-05-07T09:26:24.092Z,102817.50
2023-05-07T09:28:52.234Z,102820.00
2023-05-07T09:31:21.590Z,102822.44
2023-05-07T09:33:49.809Z,102825.25
2023-05-07T09:36:20.042Z,102822.56
2023-05-07T09:38:48.410Z,102824.16
2023-05-07T09:41:16.333Z,102822.78
2023-05-07T09:43:44.185Z,102822.81
2023-05-07T09:46:15.161Z,102818.38
2023-05-07T09:48:44.773Z,102789.81
2023-05-07T09:51:23.826Z,102819.91
2023-05-07T09:53:54.485Z,102825.34
2023-05-07T09:56:25.526Z,102791.66
2023-05-07T09:58:56.228Z,102800.31
2023-05-07T10:01:25.180Z,102801.72
2023-05-07T10:03:54.912Z,102793.41
2023-05-07T10:06:27.729Z,102800.50
2023-05-07T10:08:56.666Z,102793.25
2023-05-07T10:11:25.155Z,102775.38
2023-05-07T10:13:55.183Z,102796.41
2023-05-07T10:16:23.511Z,102779.25
2023-05-07T10:18:52.225Z,102800.41
2023-05-07T10:21:21.483Z,102794.00
2023-05-07T10:23:52.305Z,102788.72
2023-05-07T10:26:23.872Z,102769.44
2023-05-07T10:28:57.497Z,102794.25
2023-05-07T10:31:46.772Z,102787.50
2023-05-07T10:34:21.180Z,102785.91
2023-05-07T10:36:49.847Z,102769.34
2023-05-07T10:39:21.604Z,102778.59
2023-05-07T10:41:50.050Z,102782.75
2023-05-07T10:44:28.015Z,102781.34
2023-05-07T10:47:12.202Z,102769.03
2023-05-07T10:50:25.566Z,102781.31
2023-05-07T10:53:27.647Z,102778.66
2023-05-07T10:56:28.647Z,102775.44
2023-05-07T10:58:56.628Z,102776.63
2023-05-07T11:01:59.273Z,102778.84
2023-05-07T11:04:28.839Z,102780.31
2023-05-07T11:07:26.820Z,102776.19
2023-05-07T11:10:05.912Z,102785.94
2023-05-07T11:12:57.485Z,102777.31
2023-05-07T11:15:40.118Z,102777.41
2023-05-07T11:18:08.162Z,102757.09
2023-05-07T11:20:53.568Z,102757.63
2023-05-07T11:23:59.775Z,102773.72
2023-05-07T11:26:29.329Z,102772.72
2023-05-07T11:29:01.268Z,102761.91
2023-05-07T11:31:31.194Z,102750.63
2023-05-07T11:33:59.913Z,102687.75
2023-05-07T11:36:33.091Z,102744.50
2023-05-07T11:39:01.117Z,102751.13
2023-05-07T11:41:36.346Z,102741.41
2023-05-07T11:44:05.900Z,102728.41
2023-05-07T11:46:34.495Z,102755.34
2023-05-07T11:49:03.083Z,102708.16
2023-05-07T11:51:31.115Z,102767.19
2023-05-07T11:53:58.939Z,102764.22
2023-05-07T11:56:26.956Z,102760.03
2023-05-07T11:58:54.855Z,102753.28
2023-05-07T12:01:24.435Z,102760.44
2023-05-07T12:03:52.623Z,102756.69
2023-05-07T12:06:21.142Z,102759.03
2023-05-07T12:08:49.355Z,102753.25
2023-05-07T12:11:24.910Z,102752.59
2023-05-07T12:13:53.231Z,102747.69
2023-05-07T12:16:21.904Z,102739.72
2023-05-07T12:18:53.826Z,102721.75
2023-05-07T12:21:21.937Z,102735.97
2023-05-07T12:23:50.144Z,102733.66
2023-05-07T12:26:18.102Z,102738.09
2023-05-07T12:28:46.148Z,102727.75
2023-05-07T12:31:16.669Z,102606.22
2023-05-07T12:33:44.860Z,102735.00
2023-05-07T12:36:15.466Z,102735.41
2023-05-07T12:38:43.311Z,102738.91
2023-05-07T12:41:13.572Z,102732.56
2023-05-07T12:43:41.628Z,102728.34
2023-05-07T12:46:10.150Z,102727.13
2023-05-07T12:48:39.845Z,102702.72
2023-05-07T12:51:11.227Z,102675.72
2023-05-07T12:53:44.120Z,102742.75
2023-05-07T12:56:12.439Z,102735.44
2023-05-07T12:58:40.295Z,102731.56
2023-05-07T13:01:11.171Z,102727.09
2023-05-07T13:03:40.642Z,102723.81
2023-05-07T13:06:10.697Z,102717.13
2023-05-07T13:08:41.524Z,102722.94
2023-05-07T13:11:12.271Z,102729.00
2023-05-07T13:13:41.627Z,102707.03
2023-05-07T13:16:12.050Z,102716.75
2023-05-07T13:18:41.567Z,102726.09
2023-05-07T13:21:11.111Z,102718.47
2023-05-07T13:23:39.871Z,102720.47
2023-05-07T13:26:22.528Z,102727.91
2023-05-07T13:28:55.765Z,102691.25
2023-05-07T13:31:23.774Z,102699.78
2023-05-07T13:33:51.820Z,102719.09
2023-05-07T13:36:19.848Z,102727.59
2023-05-07T13:38:48.154Z,102727.81
2023-05-07T13:41:16.513Z,102724.03
2023-05-07T13:43:44.465Z,102722.13
2023-05-07T13:46:14.085Z,102720.25
2023-05-07T13:48:42.040Z,102723.03
2023-05-07T13:51:10.517Z,102730.84
2023-05-07T13:53:38.338Z,102710.66
2023-05-07T13:56:07.035Z,102697.16
2023-05-07T13:58:42.225Z,102688.00
2023-05-07T14:01:17.769Z,102709.53
2023-05-07T14:03:46.176Z,102712.59
2023-05-07T14:06:14.163Z,102712.28
2023-05-07T14:08:42.057Z,102691.47
2023-05-07T14:11:10.187Z,102699.81
2023-05-07T14:13:38.149Z,102696.19
2023-05-07T14:16:06.986Z,102693.69
2023-05-07T14:18:38.250Z,102679.53
2023-05-07T14:21:07.398Z,102693.53
2023-05-07T14:23:35.342Z,102704.25
2023-05-07T14:26:03.356Z,102695.47
2023-05-07T14:28:31.280Z,102694.69
2023-05-07T14:30:59.244Z,102687.03
2023-05-07T14:33:27.476Z,102687.13
2023-05-07T14:35:56.723Z,102681.00
2023-05-07T14:38:24.610Z,102683.81
2023-05-07T14:40:53.377Z,102687.31
2023-05-07T14:43:21.288Z,102672.97
2023-05-07T14:45:49.106Z,102676.53
2023-05-07T14:48:20.989Z,102693.28
2023-05-07T14:50:49.384Z,102682.09
2023-05-07T14:53:18.895Z,102672.94
2023-05-07T14:55:46.833Z,102688.69
2023-05-07T14:58:14.804Z,102668.88
2023-05-07T15:00:43.003Z,102631.13
2023-05-07T15:03:12.168Z,102673.06
2023-05-07T15:05:40.149Z,102679.94
2023-05-07T15:08:08.102Z,102675.38
2023-05-07T15:10:42.245Z,102675.19
2023-05-07T15:13:14.685Z,102647.94
2023-05-07T15:15:45.708Z,102682.53
2023-05-07T15:18:13.884Z,102633.94
2023-05-07T15:20:42.449Z,102647.84
2023-05-07T15:23:13.231Z,102679.91
2023-05-07T15:25:42.968Z,102677.88
2023-05-07T15:28:10.884Z,102671.25
2023-05-07T15:30:38.740Z,102674.56
2023-05-07T15:33:06.930Z,102679.09
2023-05-07T15:35:34.979Z,102691.53
2023-05-07T15:38:04.514Z,102679.63
2023-05-07T15:40:32.685Z,102666.44
2023-05-07T15:43:02.274Z,102679.78
2023-05-07T15:45:30.358Z,102680.09
2023-05-07T15:47:58.342Z,102690.53
2023-05-07T15:50:26.230Z,102689.41
2023-05-07T15:52:54.248Z,102683.81
2023-05-07T15:55:22.263Z,102690.88
2023-05-07T15:57:50.187Z,102662.31
2023-05-07T16:00:20.105Z,102688.03
2023-05-07T16:02:48.189Z,102682.03
2023-05-07T16:05:16.092Z,102665.84
2023-05-07T16:07:44.481Z,102694.22
2023-05-07T16:10:13.022Z,102694.22
2023-05-07T16:12:40.886Z,102675.88
2023-05-07T16:15:09.757Z,102685.56
2023-05-07T16:17:39.506Z,102684.31
2023-05-07T16:20:09.212Z,102679.22
2023-05-07T16:22:37.810Z,102691.59
2023-05-07T16:25:06.469Z,102682.25
2023-05-07T16:27:34.352Z,102683.13
2023-05-07T16:30:02.272Z,102684.81
2023-05-07T16:32:30.240Z,102674.63
2023-05-07T16:34:59.594Z,102678.06
2023-05-07T16:37:27.523Z,102672.19
2023-05-07T16:39:56.594Z,102682.47
2023-05-07T16:42:24.417Z,102685.81
2023-05-07T16:44:52.361Z,102695.41
2023-05-07T16:47:20.357Z,102690.94
2023-05-07T16:49:48.585Z,102684.81
2023-05-07T16:52:18.219Z,102684.94
2023-05-07T16:54:46.104Z,102680.25
2023-05-07T16:57:14.213Z,102669.44
2023-05-07T16:59:42.501Z,102694.31
2023-05-07T17:02:10.504Z,102645.53
2023-05-07T17:04:38.426Z,102677.03
2023-05-07T17:07:06.612Z,102675.97
2023-05-07T17:09:35.976Z,102686.13
2023-05-07T17:12:03.954Z,102699.28
2023-05-07T17:14:31.830Z,102697.19
2023-05-07T17:16:59.746Z,102649.44
2023-05-07T17:19:27.570Z,102707.63
2023-05-07T17:21:55.626Z,102550.50
2023-05-07T17:24:23.514Z,102715.19
2023-05-07T17:26:52.707Z,102711.19
2023-05-07T17:29:21.286Z,102630.78
2023-05-07T17:31:49.442Z,102718.59
2023-05-07T17:34:17.440Z,102714.63
2023-05-07T17:36:46.066Z,102729.84
2023-05-07T17:39:13.958Z,102727.75
2023-05-07T17:41:41.785Z,102719.19
2023-05-07T17:44:11.119Z,102717.28
2023-05-07T17:46:39.012Z,102727.28
2023-05-07T17:49:06.849Z,102721.25
2023-05-07T17:51:49.789Z,102710.50
2023-05-07T17:54:21.826Z,102694.78
2023-05-07T17:56:49.795Z,102719.84
2023-05-07T17:59:19.061Z,102729.06
2023-05-07T18:01:47.077Z,102724.47
2023-05-07T18:04:15.410Z,102731.25
2023-05-07T18:06:43.601Z,102724.91
2023-05-07T18:09:11.540Z,102724.78
2023-05-07T18:11:39.519Z,102736.72
2023-05-07T18:14:07.380Z,102727.84
2023-05-07T18:16:36.952Z,102731.00
2023-05-07T18:19:04.911Z,102701.59
2023-05-07T18:21:32.812Z,102735.97
2023-05-07T18:24:00.783Z,102743.66
2023-05-07T18:26:28.700Z,102747.88
2023-05-07T18:28:56.615Z,102743.34
2023-05-07T18:31:24.833Z,102743.97
2023-05-07T18:33:56.015Z,102746.94
2023-05-07T18:36:25.034Z,102745.31
2023-05-07T18:38:53.674Z,102720.66
2023-05-07T18:41:21.645Z,102736.75
2023-05-07T18:43:49.485Z,102763.03
2023-05-07T18:46:17.559Z,102740.31
2023-05-07T18:48:45.469Z,102764.56
2023-05-07T18:51:14.705Z,102748.06
2023-05-07T18:53:42.834Z,102758.03
2023-05-07T18:56:10.725Z,102743.16
2023-05-07T18:58:38.751Z,102760.16
2023-05-07T19:01:08.634Z,102748.81
2023-05-07T19:03:36.685Z,102766.34
2023-05-07T19:06:05.816Z,102756.69
2023-05-07T19:08:35.419Z,102776.75
2023-05-07T19:11:03.923Z,102769.59
2023-05-07T19:13:31.892Z,102772.03
2023-05-07T19:15:59.997Z,102773.72
2023-05-07T19:18:29.754Z,102780.69
2023-05-07T19:20:57.623Z,102774.34
2023-05-07T19:23:26.200Z,102781.19
2023-05-07T19:25:55.456Z,102776.66
2023-05-07T19:28:23.347Z,102785.09
2023-05-07T19:30:52.744Z,102782.28
2023-05-07T19:33:20.646Z,102793.47
2023-05-07T19:35:48.563Z,102786.22
2023-05-07T19:38:16.666Z,102744.25
2023-05-07T19:40:44.500Z,102784.00
2023-05-07T19:43:13.717Z,102765.78
2023-05-07T19:45:43.548Z,102792.13
2023-05-07T19:48:11.761Z,102738.00
2023-05-07T19:50:39.653Z,102780.25
2023-05-07T19:53:07.849Z,102682.91
2023-05-07T19:55:35.744Z,102774.31
2023-05-07T19:58:03.659Z,102769.78
2023-05-07T20:00:34.004Z,102774.69
2023-05-07T20:03:02.058Z,102772.78
2023-05-07T20:05:29.993Z,102769.72
2023-05-07T20:07:58.580Z,102776.44
2023-05-07T20:10:26.438Z,102769.19
2023-05-07T20:12:54.300Z,102778.09
2023-05-07T20:15:23.586Z,102771.75
2023-05-07T20:17:52.877Z,102781.31
2023-05-07T20:20:21.159Z,102789.94
2023-05-07T20:22:49.192Z,102779.97
2023-05-07T20:25:17.046Z,102779.88
2023-05-07T20:27:44.911Z,102786.59
2023-05-07T20:30:14.744Z,102784.56
2023-05-07T20:32:43.579Z,102786.06
2023-05-07T20:35:13.109Z,102775.06
2023-05-07T20:37:41.318Z,102784.66
2023-05-07T20:40:10.514Z,102786.25
2023-05-07T20:42:38.669Z,102785.91
2023-05-07T20:45:08.188Z,102785.59
2023-05-07T20:47:36.359Z,102790.38
2023-05-07T20:50:04.334Z,102790.84
2023-05-07T20:52:33.622Z,102793.34
2023-05-07T20:55:01.587Z,102790.63
2023-05-07T20:57:29.414Z,102786.78
2023-05-07T20:59:57.388Z,102792.22
2023-05-07T21:02:25.426Z,102796.34
2023-05-07T21:04:54.587Z,102790.09
2023-05-07T21:07:22.462Z,102789.88
2023-05-07T21:09:51.819Z,102785.44
2023-05-07T21:12:19.636Z,102770.28
2023-05-07T21:14:47.606Z,102798.16
2023-05-07T21:17:15.522Z,102795.34
2023-05-07T21:19:44.093Z,102791.59
2023-05-07T21:22:12.083Z,102801.81
2023-05-07T21:24:41.374Z,102782.56
2023-05-07T21:27:10.683Z,102802.72
2023-05-07T21:29:38.680Z,102788.69
2023-05-07T21:32:06.782Z,102804.91
2023-05-07T21:34:35.273Z,102802.97
2023-05-07T21:37:03.314Z,102820.66
2023-05-07T21:39:31.576Z,102804.78
2023-05-07T21:41:59.460Z,102810.69
2023-05-07T21:44:29.918Z,102817.38
2023-05-07T21:46:57.907Z,102806.59
2023-05-07T21:49:25.856Z,102815.91
2023-05-07T21:51:53.827Z,102808.88
2023-05-07T21:54:21.739Z,102793.56
2023-05-07T21:56:50.206Z,102782.22
2023-05-07T21:59:18.338Z,102808.31
2023-05-07T22:01:47.669Z,102783.56
2023-05-07T22:04:15.556Z,102803.53
2023-05-07T22:06:43.523Z,102811.34
2023-05-07T22:09:11.869Z,102827.44
2023-05-07T22:11:39.776Z,102805.34
2023-05-07T22:14:07.684Z,102804.97
2023-05-07T22:16:35.791Z,102812.56
2023-05-07T22:19:05.149Z,102800.66
2023-05-07T22:21:33.087Z,102799.75
2023-05-07T22:24:01.052Z,102813.91
2023-05-07T22:26:28.955Z,102799.06
2023-05-07T22:28:56.883Z,102790.00
2023-05-07T22:31:24.941Z,102801.44
2023-05-07T22:33:52.791Z,102802.13
2023-05-07T22:36:22.069Z,102784.88
2023-05-07T22:38:50.013Z,102626.78
2023-05-07T22:41:17.905Z,102801.44
2023-05-07T22:43:45.891Z,102786.13
2023-05-07T22:46:14.037Z,102799.25
2023-05-07T22:48:41.885Z,102793.13
2023-05-07T22:51:13.978Z,102794.72
2023-05-07T22:53:43.341Z,102801.41
2023-05-07T22:56:11.332Z,102776.78
2023-05-07T22:58:39.436Z,102802.63
2023-05-07T23:01:13.369Z,102780.03
2023-05-07T23:03:41.369Z,102787.75
2023-05-07T23:06:09.782Z,102800.22
2023-05-07T23:08:37.673Z,102792.28
2023-05-07T23:11:07.520Z,102802.56
2023-05-07T23:13:35.451Z,102795.44
2023-05-07T23:16:03.364Z,102780.63
2023-05-07T23:18:32.683Z,102800.41
2023-05-07T23:21:00.646Z,102796.66
2023-05-07T23:23:33.706Z,102793.78
2023-05-07T23:26:01.762Z,102764.84
2023-05-07T23:28:31.013Z,102786.63
2023-05-07T23:30:58.940Z,102779.00
2023-05-07T23:33:26.984Z,102782.66
2023-05-07T23:36:00.435Z,102782.66
2023-05-07T23:38:28.619Z,102783.19
2023-05-07T23:40:56.746Z,102785.69
2023-05-07T23:43:25.026Z,102787.13
2023-05-07T23:45:54.422Z,102787.00
2023-05-07T23:48:22.339Z,102787.69
2023-05-07T23:50:50.266Z,102760.81
2023-05-07T23:53:18.169Z,102766.69
2023-05-07T23:55:45.998Z,102784.84
2023-05-07T23:58:14.218Z,102784.03
